9G6 weather

Public forecast

Using degrees Fahrenheit for public forecast. Weather courtesy of forecast.io.

Closest aviation weather report (METAR) to Pine Hill Airport

Closest report is Buffalo Niagara International Airport, 24.5 nm (45.3 km) SW. Retrieved 2020/08/14 18:54 UTC (1 hour ago):

KBUF 141854Z 06013KT 10SM FEW065 FEW270 31/11 A3009 RMK AO2 SLP184 T03060106

Closest aviation forecast (TAF) to Pine Hill Airport

Closest forecast is Buffalo Niagara International Airport, 24.5 nm (45.3 km) SW. Retrieved 2020/08/14 18:30 UTC (1 hour ago):

TAF KBUF 141729Z 1418/1518 05010G16KT P6SM FEW250 FM150100 08007KT P6SM FEW250 FM151000 VRB03KT P6SM BKN100 FM151700 12004KT P6SM BKN070